sensor_id;sensor_type;location;lat;lon;timestamp;pressure;altitude;pressure_sealevel;temperature;humidity
9189;BME280;34313;50.780;6.084;2023-04-09T00:01:33;100399.50;;;7.02;100.00
9189;BME280;34313;50.780;6.084;2023-04-09T00:03:58;100393.75;;;6.89;100.00
9189;BME280;34313;50.780;6.084;2023-04-09T00:06:24;100395.72;;;6.81;100.00
9189;BME280;34313;50.780;6.084;2023-04-09T00:08:50;100397.34;;;6.85;100.00
9189;BME280;34313;50.780;6.084;2023-04-09T00:11:15;100389.81;;;6.74;100.00
9189;BME280;34313;50.780;6.084;2023-04-09T00:13:40;100395.13;;;6.71;100.00
9189;BME280;34313;50.780;6.084;2023-04-09T00:16:06;100385.75;;;6.62;100.00
9189;BME280;34313;50.780;6.084;2023-04-09T00:18:32;100389.25;;;6.63;100.00
9189;BME280;34313;50.780;6.084;2023-04-09T00:20:57;100388.44;;;6.61;100.00
9189;BME280;34313;50.780;6.084;2023-04-09T00:23:23;100382.13;;;6.68;100.00
9189;BME280;34313;50.780;6.084;2023-04-09T00:25:48;100380.09;;;6.78;100.00
9189;BME280;34313;50.780;6.084;2023-04-09T00:28:13;100383.41;;;6.85;100.00
9189;BME280;34313;50.780;6.084;2023-04-09T00:30:39;100379.94;;;6.84;100.00
9189;BME280;34313;50.780;6.084;2023-04-09T00:33:04;100378.94;;;6.88;100.00
9189;BME280;34313;50.780;6.084;2023-04-09T00:35:29;100377.13;;;6.90;100.00
9189;BME280;34313;50.780;6.084;2023-04-09T00:37:55;100374.41;;;6.93;100.00
9189;BME280;34313;50.780;6.084;2023-04-09T00:40:20;100374.41;;;6.93;100.00
9189;BME280;34313;50.780;6.084;2023-04-09T00:42:46;100374.38;;;6.95;100.00
9189;BME280;34313;50.780;6.084;2023-04-09T00:45:12;100369.16;;;6.93;100.00
9189;BME280;34313;50.780;6.084;2023-04-09T00:47:37;100373.56;;;6.93;100.00
9189;BME280;34313;50.780;6.084;2023-04-09T00:50:03;100375.25;;;6.94;100.00
9189;BME280;34313;50.780;6.084;2023-04-09T00:52:29;100370.19;;;6.89;100.00
9189;BME280;34313;50.780;6.084;2023-04-09T00:55:01;100368.41;;;6.90;100.00
9189;BME280;34313;50.780;6.084;2023-04-09T00:57:28;100360.72;;;6.84;100.00
9189;BME280;34313;50.780;6.084;2023-04-09T00:59:53;100367.94;;;6.75;100.00
9189;BME280;34313;50.780;6.084;2023-04-09T01:02:19;100366.13;;;6.77;100.00
9189;BME280;34313;50.780;6.084;2023-04-09T01:04:45;100368.91;;;6.71;100.00
9189;BME280;34313;50.780;6.084;2023-04-09T01:07:31;100363.78;;;6.68;100.00
9189;BME280;34313;50.780;6.084;2023-04-09T01:15:25;100361.56;;;6.54;100.00
9189;BME280;34313;50.780;6.084;2023-04-09T01:20:58;100363.84;;;6.34;100.00
9189;BME280;34313;50.780;6.084;2023-04-09T01:23:59;100357.81;;;6.32;100.00
9189;BME280;34313;50.780;6.084;2023-04-09T01:26:40;100353.75;;;6.20;100.00
9189;BME280;34313;50.780;6.084;2023-04-09T01:29:09;100359.03;;;6.18;100.00
9189;BME280;34313;50.780;6.084;2023-04-09T01:31:36;100365.03;;;6.22;100.00
9189;BME280;34313;50.780;6.084;2023-04-09T01:34:04;100357.41;;;6.14;100.00
9189;BME280;34313;50.780;6.084;2023-04-09T01:36:31;100362.91;;;6.03;100.00
9189;BME280;34313;50.780;6.084;2023-04-09T01:38:59;100361.47;;;5.90;100.00
9189;BME280;34313;50.780;6.084;2023-04-09T01:41:25;100362.44;;;5.86;100.00
9189;BME280;34313;50.780;6.084;2023-04-09T01:43:51;100359.91;;;5.83;100.00
9189;BME280;34313;50.780;6.084;2023-04-09T01:46:18;100365.38;;;5.74;100.00
9189;BME280;34313;50.780;6.084;2023-04-09T01:48:44;100349.00;;;5.65;100.00
9189;BME280;34313;50.780;6.084;2023-04-09T01:51:11;100347.38;;;5.61;100.00
9189;BME280;34313;50.780;6.084;2023-04-09T01:53:38;100342.19;;;5.58;100.00
9189;BME280;34313;50.780;6.084;2023-04-09T01:56:05;100347.44;;;5.58;100.00
9189;BME280;34313;50.780;6.084;2023-04-09T01:58:30;100349.19;;;5.58;100.00
9189;BME280;34313;50.780;6.084;2023-04-09T02:01:25;100353.25;;;5.69;100.00
9189;BME280;34313;50.780;6.084;2023-04-09T02:03:57;100351.84;;;5.56;100.00
9189;BME280;34313;50.780;6.084;2023-04-09T02:06:33;100349.47;;;5.47;100.00
9189;BME280;34313;50.780;6.084;2023-04-09T02:09:01;100350.41;;;5.43;100.00
9189;BME280;34313;50.780;6.084;2023-04-09T02:11:32;100340.75;;;5.45;100.00
9189;BME280;34313;50.780;6.084;2023-04-09T02:13:58;100347.03;;;5.38;100.00
9189;BME280;34313;50.780;6.084;2023-04-09T02:16:24;100345.22;;;5.41;100.00
9189;BME280;34313;50.780;6.084;2023-04-09T02:18:54;100342.72;;;5.37;100.00
9189;BME280;34313;50.780;6.084;2023-04-09T02:21:22;100347.16;;;5.33;100.00
9189;BME280;34313;50.780;6.084;2023-04-09T02:23:47;100344.56;;;5.32;100.00
9189;BME280;34313;50.780;6.084;2023-04-09T02:26:12;100334.88;;;5.37;100.00
9189;BME280;34313;50.780;6.084;2023-04-09T02:28:37;100336.59;;;5.36;100.00
9189;BME280;34313;50.780;6.084;2023-04-09T02:31:03;100339.47;;;5.25;100.00
9189;BME280;34313;50.780;6.084;2023-04-09T02:33:28;100336.91;;;5.24;100.00
9189;BME280;34313;50.780;6.084;2023-04-09T02:35:53;100333.47;;;5.22;100.00
9189;BME280;34313;50.780;6.084;2023-04-09T02:38:19;100324.91;;;5.15;100.00
9189;BME280;34313;50.780;6.084;2023-04-09T02:40:44;100330.09;;;5.17;100.00
9189;BME280;34313;50.780;6.084;2023-04-09T02:43:09;100324.03;;;5.16;100.00
9189;BME280;34313;50.780;6.084;2023-04-09T02:45:35;100325.03;;;5.10;100.00
9189;BME280;34313;50.780;6.084;2023-04-09T02:48:00;100314.72;;;5.03;100.00
9189;BME280;34313;50.780;6.084;2023-04-09T02:50:26;100314.94;;;4.93;100.00
9189;BME280;34313;50.780;6.084;2023-04-09T02:52:51;100312.41;;;4.89;100.00
9189;BME280;34313;50.780;6.084;2023-04-09T02:55:17;100313.16;;;4.96;100.00
9189;BME280;34313;50.780;6.084;2023-04-09T02:57:43;100308.72;;;4.99;100.00
9189;BME280;34313;50.780;6.084;2023-04-09T03:00:09;100308.94;;;4.88;100.00
9189;BME280;34313;50.780;6.084;2023-04-09T03:02:34;100308.19;;;4.83;100.00
9189;BME280;34313;50.780;6.084;2023-04-09T03:05:00;100313.44;;;4.82;100.00
9189;BME280;34313;50.780;6.084;2023-04-09T03:07:25;100320.44;;;4.81;100.00
9189;BME280;34313;50.780;6.084;2023-04-09T03:09:50;100313.59;;;4.76;100.00
9189;BME280;34313;50.780;6.084;2023-04-09T03:12:16;100309.28;;;4.73;100.00
9189;BME280;34313;50.780;6.084;2023-04-09T03:14:41;100305.81;;;4.72;100.00
9189;BME280;34313;50.780;6.084;2023-04-09T03:17:07;100312.78;;;4.73;100.00
9189;BME280;34313;50.780;6.084;2023-04-09T03:19:32;100310.94;;;4.77;100.00
9189;BME280;34313;50.780;6.084;2023-04-09T03:21:57;100317.75;;;4.84;100.00
9189;BME280;34313;50.780;6.084;2023-04-09T03:24:23;100310.72;;;4.88;100.00
9189;BME280;34313;50.780;6.084;2023-04-09T03:26:48;100308.91;;;4.91;100.00
9189;BME280;34313;50.780;6.084;2023-04-09T03:29:13;100307.69;;;5.06;100.00
9189;BME280;34313;50.780;6.084;2023-04-09T03:31:39;100303.16;;;5.15;100.00
9189;BME280;34313;50.780;6.084;2023-04-09T03:34:04;100304.84;;;5.17;100.00
9189;BME280;34313;50.780;6.084;2023-04-09T03:36:29;100303.94;;;5.18;100.00
9189;BME280;34313;50.780;6.084;2023-04-09T03:38:55;100299.47;;;5.23;100.00
9189;BME280;34313;50.780;6.084;2023-04-09T03:41:20;100304.66;;;5.25;100.00
9189;BME280;34313;50.780;6.084;2023-04-09T03:43:45;100302.75;;;5.32;100.00
9189;BME280;34313;50.780;6.084;2023-04-09T03:46:12;100298.31;;;5.35;100.00
9189;BME280;34313;50.780;6.084;2023-04-09T03:48:37;100298.34;;;5.34;100.00
9189;BME280;34313;50.780;6.084;2023-04-09T03:51:03;100296.41;;;5.42;100.00
9189;BME280;34313;50.780;6.084;2023-04-09T03:53:28;100289.47;;;5.41;100.00
9189;BME280;34313;50.780;6.084;2023-04-09T03:55:53;100289.38;;;5.44;100.00
9189;BME280;34313;50.780;6.084;2023-04-09T03:58:18;100294.59;;;5.45;100.00
9189;BME280;34313;50.780;6.084;2023-04-09T04:00:44;100294.78;;;5.36;100.00
9189;BME280;34313;50.780;6.084;2023-04-09T04:03:10;100294.69;;;5.41;100.00
9189;BME280;34313;50.780;6.084;2023-04-09T04:05:36;100298.16;;;5.41;100.00
9189;BME280;34313;50.780;6.084;2023-04-09T04:08:01;100296.41;;;5.42;100.00
9189;BME280;34313;50.780;6.084;2023-04-09T04:10:26;100286.88;;;5.39;100.00
9189;BME280;34313;50.780;6.084;2023-04-09T04:12:51;100295.56;;;5.40;100.00
9189;BME280;34313;50.780;6.084;2023-04-09T04:15:17;100293.06;;;5.37;100.00
9189;BME280;34313;50.780;6.084;2023-04-09T04:17:44;100294.75;;;5.38;100.00
9189;BME280;34313;50.780;6.084;2023-04-09T04:20:10;100296.16;;;5.53;100.00
9189;BME280;34313;50.780;6.084;2023-04-09T04:22:35;100293.28;;;5.62;100.00
9189;BME280;34313;50.780;6.084;2023-04-09T04:25:02;100292.59;;;5.55;100.00
9189;BME280;34313;50.780;6.084;2023-04-09T04:27:27;100292.50;;;5.58;100.00
9189;BME280;34313;50.780;6.084;2023-04-09T04:29:52;100289.13;;;5.55;100.00
9189;BME280;34313;50.780;6.084;2023-04-09T04:32:17;100297.00;;;5.53;100.00
9189;BME280;34313;50.780;6.084;2023-04-09T04:34:43;100290.00;;;5.54;100.00
9189;BME280;34313;50.780;6.084;2023-04-09T04:37:12;100286.53;;;5.53;100.00
9189;BME280;34313;50.780;6.084;2023-04-09T04:39:37;100291.81;;;5.52;100.00
9189;BME280;34313;50.780;6.084;2023-04-09T04:42:03;100290.03;;;5.52;100.00
9189;BME280;34313;50.780;6.084;2023-04-09T04:44:28;100297.97;;;5.49;100.00
9189;BME280;34313;50.780;6.084;2023-04-09T04:46:53;100285.81;;;5.46;100.00
9189;BME280;34313;50.780;6.084;2023-04-09T04:49:19;100294.63;;;5.44;100.00
9189;BME280;34313;50.780;6.084;2023-04-09T04:51:44;100289.44;;;5.42;100.00
9189;BME280;34313;50.780;6.084;2023-04-09T04:54:09;100299.03;;;5.42;100.00
9189;BME280;34313;50.780;6.084;2023-04-09T04:56:35;100296.41;;;5.42;100.00
9189;BME280;34313;50.780;6.084;2023-04-09T04:59:00;100300.78;;;5.40;100.00
9189;BME280;34313;50.780;6.084;2023-04-09T05:01:25;100295.50;;;5.43;100.00
9189;BME280;34313;50.780;6.084;2023-04-09T05:03:50;100297.22;;;5.44;100.00
9189;BME280;34313;50.780;6.084;2023-04-09T05:06:16;100298.84;;;5.49;100.00
9189;BME280;34313;50.780;6.084;2023-04-09T05:08:41;100296.00;;;5.57;100.00
9189;BME280;34313;50.780;6.084;2023-04-09T05:11:10;100294.03;;;5.67;100.00
9189;BME280;34313;50.780;6.084;2023-04-09T05:13:35;100294.25;;;5.92;100.00
9189;BME280;34313;50.780;6.084;2023-04-09T05:16:01;100292.00;;;6.44;100.00
9189;BME280;34313;50.780;6.084;2023-04-09T05:18:26;100284.47;;;6.93;100.00
9189;BME280;34313;50.780;6.084;2023-04-09T05:20:51;100283.69;;;7.44;100.00
9189;BME280;34313;50.780;6.084;2023-04-09T05:23:16;100277.88;;;7.88;100.00
9189;BME280;34313;50.780;6.084;2023-04-09T05:25:42;100279.06;;;8.53;100.00
9189;BME280;34313;50.780;6.084;2023-04-09T05:28:07;100279.97;;;9.20;100.00
9189;BME280;34313;50.780;6.084;2023-04-09T05:30:35;100274.50;;;9.89;98.13
9189;BME280;34313;50.780;6.084;2023-04-09T05:33:00;100274.31;;;10.54;92.02
9189;BME280;34313;50.780;6.084;2023-04-09T05:35:26;100278.88;;;11.25;87.10
9189;BME280;34313;50.780;6.084;2023-04-09T05:37:51;100283.22;;;11.97;79.81
9189;BME280;34313;50.780;6.084;2023-04-09T05:40:16;100273.72;;;12.44;75.80
9189;BME280;34313;50.780;6.084;2023-04-09T05:42:42;100275.22;;;12.32;71.73
9189;BME280;34313;50.780;6.084;2023-04-09T05:45:08;100274.41;;;12.14;71.56
9189;BME280;34313;50.780;6.084;2023-04-09T05:47:33;100276.03;;;11.47;73.43
9189;BME280;34313;50.780;6.084;2023-04-09T05:49:58;100276.94;;;10.73;75.15
9189;BME280;34313;50.780;6.084;2023-04-09T05:52:23;100278.03;;;10.09;78.15
9189;BME280;34313;50.780;6.084;2023-04-09T05:54:49;100278.03;;;9.88;79.64
9189;BME280;34313;50.780;6.084;2023-04-09T05:57:14;100270.06;;;9.90;81.70
9189;BME280;34313;50.780;6.084;2023-04-09T05:59:39;100281.19;;;10.17;81.59
9189;BME280;34313;50.780;6.084;2023-04-09T06:02:05;100273.72;;;10.47;80.86
9189;BME280;34313;50.780;6.084;2023-04-09T06:04:30;100277.72;;;10.94;80.47
9189;BME280;34313;50.780;6.084;2023-04-09T06:06:55;100280.47;;;11.64;77.64
9189;BME280;34313;50.780;6.084;2023-04-09T06:09:24;100279.09;;;12.42;73.53
9189;BME280;34313;50.780;6.084;2023-04-09T06:11:50;100279.47;;;12.68;71.88
9189;BME280;34313;50.780;6.084;2023-04-09T06:14:15;100276.75;;;12.85;69.00
9189;BME280;34313;50.780;6.084;2023-04-09T06:16:42;100280.19;;;13.66;66.22
9189;BME280;34313;50.780;6.084;2023-04-09T06:19:07;100280.66;;;14.46;62.40
9189;BME280;34313;50.780;6.084;2023-04-09T06:21:32;100282.22;;;15.06;60.20
9189;BME280;34313;50.780;6.084;2023-04-09T06:23:58;100283.69;;;15.24;59.20
9189;BME280;34313;50.780;6.084;2023-04-09T06:26:23;100281.78;;;15.54;57.21
9189;BME280;34313;50.780;6.084;2023-04-09T06:28:48;100284.00;;;15.47;56.98
9189;BME280;34313;50.780;6.084;2023-04-09T06:31:14;100287.00;;;15.28;57.25
9189;BME280;34313;50.780;6.084;2023-04-09T06:33:39;100287.97;;;15.67;57.06
9189;BME280;34313;50.780;6.084;2023-04-09T06:36:05;100291.63;;;15.79;56.42
9189;BME280;34313;50.780;6.084;2023-04-09T06:38:30;100292.63;;;15.78;55.54
9189;BME280;34313;50.780;6.084;2023-04-09T06:40:56;100291.78;;;15.63;55.77
9189;BME280;34313;50.780;6.084;2023-04-09T06:43:22;100297.78;;;15.39;55.66
9189;BME280;34313;50.780;6.084;2023-04-09T06:45:47;100294.31;;;14.83;56.91
9189;BME280;34313;50.780;6.084;2023-04-09T06:48:12;100297.97;;;14.67;58.03
9189;BME280;34313;50.780;6.084;2023-04-09T06:50:37;100299.44;;;14.86;57.74
9189;BME280;34313;50.780;6.084;2023-04-09T06:53:05;100298.53;;;15.41;56.12
9189;BME280;34313;50.780;6.084;2023-04-09T06:55:31;100298.69;;;15.93;55.06
9189;BME280;34313;50.780;6.084;2023-04-09T06:57:56;100283.38;;;16.60;53.43
9189;BME280;34313;50.780;6.084;2023-04-09T07:00:21;100292.44;;;17.32;51.42
9189;BME280;34313;50.780;6.084;2023-04-09T07:02:47;100295.38;;;17.64;49.40
9189;BME280;34313;50.780;6.084;2023-04-09T07:05:13;100301.09;;;18.06;48.94
9189;BME280;34313;50.780;6.084;2023-04-09T07:07:38;100286.84;;;18.64;46.57
9189;BME280;34313;50.780;6.084;2023-04-09T07:10:04;100283.44;;;18.84;45.23
9189;BME280;34313;50.780;6.084;2023-04-09T07:12:32;100295.81;;;18.29;45.60
9189;BME280;34313;50.780;6.084;2023-04-09T07:14:58;100295.69;;;18.30;45.79
9189;BME280;34313;50.780;6.084;2023-04-09T07:17:24;100302.66;;;17.98;46.13
9189;BME280;34313;50.780;6.084;2023-04-09T07:19:49;100297.25;;;18.22;45.78
9189;BME280;34313;50.780;6.084;2023-04-09T07:22:16;100301.72;;;18.10;46.05
9189;BME280;34313;50.780;6.084;2023-04-09T07:24:41;100297.63;;;19.07;44.88
9189;BME280;34313;50.780;6.084;2023-04-09T07:27:06;100307.47;;;19.72;43.02
9189;BME280;34313;50.780;6.084;2023-04-09T07:29:32;100302.84;;;20.06;41.96
9189;BME280;34313;50.780;6.084;2023-04-09T07:31:57;100300.66;;;21.23;40.31
9189;BME280;34313;50.780;6.084;2023-04-09T07:34:25;100309.47;;;22.88;36.46
9189;BME280;34313;50.780;6.084;2023-04-09T07:36:50;100303.88;;;22.99;35.64
9189;BME280;34313;50.780;6.084;2023-04-09T07:39:16;100312.94;;;22.33;36.18
9189;BME280;34313;50.780;6.084;2023-04-09T07:41:41;100317.38;;;21.85;37.57
9189;BME280;34313;50.780;6.084;2023-04-09T07:44:06;100313.56;;;21.88;37.14
9189;BME280;34313;50.780;6.084;2023-04-09T07:46:32;100308.44;;;22.99;35.27
9189;BME280;34313;50.780;6.084;2023-04-09T07:48:57;100313.28;;;23.23;34.16
9189;BME280;34313;50.780;6.084;2023-04-09T07:51:23;100307.28;;;23.47;33.54
9189;BME280;34313;50.780;6.084;2023-04-09T07:53:49;100309.03;;;23.38;33.69
9189;BME280;34313;50.780;6.084;2023-04-09T07:56:14;100310.72;;;24.38;32.87
9189;BME280;34313;50.780;6.084;2023-04-09T07:58:39;100304.78;;;25.87;29.85
9189;BME280;34313;50.780;6.084;2023-04-09T08:01:05;100310.00;;;27.25;28.31
9189;BME280;34313;50.780;6.084;2023-04-09T08:03:30;100306.06;;;28.35;26.43
9189;BME280;34313;50.780;6.084;2023-04-09T08:05:55;100308.16;;;27.71;26.82
9189;BME280;34313;50.780;6.084;2023-04-09T08:08:21;100310.03;;;26.21;28.03
9189;BME280;34313;50.780;6.084;2023-04-09T08:10:47;100309.84;;;25.90;28.00
9189;BME280;34313;50.780;6.084;2023-04-09T08:13:12;100299.19;;;26.29;27.65
9189;BME280;34313;50.780;6.084;2023-04-09T08:15:37;100300.28;;;26.68;27.47
9189;BME280;34313;50.780;6.084;2023-04-09T08:18:02;100300.00;;;28.47;25.82
9189;BME280;34313;50.780;6.084;2023-04-09T08:20:28;100305.13;;;27.12;26.29
9189;BME280;34313;50.780;6.084;2023-04-09T08:22:54;100298.41;;;26.68;26.48
9189;BME280;34313;50.780;6.084;2023-04-09T08:25:20;100298.88;;;25.83;27.49
9189;BME280;34313;50.780;6.084;2023-04-09T08:27:46;100303.38;;;24.82;27.97
9189;BME280;34313;50.780;6.084;2023-04-09T08:30:12;100300.19;;;24.26;28.64
9189;BME280;34313;50.780;6.084;2023-04-09T08:32:38;100294.34;;;25.00;28.43
9189;BME280;34313;50.780;6.084;2023-04-09T08:35:03;100298.31;;;24.79;27.94
9189;BME280;34313;50.780;6.084;2023-04-09T08:37:29;100307.56;;;24.50;27.98
9189;BME280;34313;50.780;6.084;2023-04-09T08:39:54;100300.94;;;24.37;28.90
9189;BME280;34313;50.780;6.084;2023-04-09T08:42:20;100298.50;;;25.37;28.15
9189;BME280;34313;50.780;6.084;2023-04-09T08:44:46;100294.22;;;27.05;25.59
9189;BME280;34313;50.780;6.084;2023-04-09T08:47:11;100290.00;;;28.48;24.33
9189;BME280;34313;50.780;6.084;2023-04-09T08:49:40;100285.94;;;29.62;22.74
9189;BME280;34313;50.780;6.084;2023-04-09T08:52:05;100285.03;;;30.61;21.33
9189;BME280;34313;50.780;6.084;2023-04-09T08:54:31;100283.69;;;31.53;20.26
9189;BME280;34313;50.780;6.084;2023-04-09T08:56:56;100279.94;;;31.81;19.81
9189;BME280;34313;50.780;6.084;2023-04-09T08:59:23;100280.03;;;31.13;19.31
9189;BME280;34313;50.780;6.084;2023-04-09T09:01:49;100273.13;;;29.98;20.37
9189;BME280;34313;50.780;6.084;2023-04-09T09:04:46;100279.56;;;28.60;20.84
9189;BME280;34313;50.780;6.084;2023-04-09T09:07:12;100279.16;;;25.99;23.05
9189;BME280;34313;50.780;6.084;2023-04-09T09:12:39;100278.75;;;22.91;26.43
9189;BME280;34313;50.780;6.084;2023-04-09T09:15:28;100268.28;;;23.15;26.59
9189;BME280;34313;50.780;6.084;2023-04-09T09:17:55;100274.53;;;23.88;26.18
9189;BME280;34313;50.780;6.084;2023-04-09T09:20:21;100268.06;;;24.25;25.40
9189;BME280;34313;50.780;6.084;2023-04-09T09:22:51;100269.47;;;24.63;25.16
9189;BME280;34313;50.780;6.084;2023-04-09T09:25:17;100276.44;;;23.95;25.59
9189;BME280;34313;50.780;6.084;2023-04-09T09:27:42;100270.94;;;22.97;27.18
9189;BME280;34313;50.780;6.084;2023-04-09T09:30:10;100269.75;;;23.46;26.50
9189;BME280;34313;50.780;6.084;2023-04-09T09:32:44;100271.66;;;23.71;26.13
9189;BME280;34313;50.780;6.084;2023-04-09T09:35:10;100270.53;;;23.20;26.64
9189;BME280;34313;50.780;6.084;2023-04-09T09:37:35;100270.44;;;23.84;26.36
9189;BME280;34313;50.780;6.084;2023-04-09T09:40:01;100269.88;;;23.98;25.99
9189;BME280;34313;50.780;6.084;2023-04-09T09:42:26;100262.53;;;22.82;26.62
9189;BME280;34313;50.780;6.084;2023-04-09T09:44:52;100274.94;;;22.18;27.56
9189;BME280;34313;50.780;6.084;2023-04-09T09:47:19;100271.41;;;20.60;29.62
9189;BME280;34313;50.780;6.084;2023-04-09T09:49:48;100279.13;;;20.23;31.88
9189;BME280;34313;50.780;6.084;2023-04-09T09:52:14;100266.91;;;19.67;33.07
9189;BME280;34313;50.780;6.084;2023-04-09T09:54:42;100268.53;;;18.82;34.31
9189;BME280;34313;50.780;6.084;2023-04-09T09:57:09;100267.91;;;18.33;34.93
9189;BME280;34313;50.780;6.084;2023-04-09T09:59:40;100269.13;;;18.40;35.84
9189;BME280;34313;50.780;6.084;2023-04-09T10:02:17;100264.25;;;18.45;35.97
9189;BME280;34313;50.780;6.084;2023-04-09T10:04:43;100267.53;;;18.49;36.43
9189;BME280;34313;50.780;6.084;2023-04-09T10:07:08;100252.13;;;18.19;36.68
9189;BME280;34313;50.780;6.084;2023-04-09T10:09:37;100254.69;;;18.31;36.81
9189;BME280;34313;50.780;6.084;2023-04-09T10:12:06;100256.16;;;18.47;36.97
9189;BME280;34313;50.780;6.084;2023-04-09T10:14:34;100257.25;;;18.22;37.00
9189;BME280;34313;50.780;6.084;2023-04-09T10:17:00;100260.25;;;18.06;37.45
9189;BME280;34313;50.780;6.084;2023-04-09T10:19:28;100255.25;;;18.01;37.75
9189;BME280;34313;50.780;6.084;2023-04-09T10:22:02;100259.56;;;17.80;37.75
9189;BME280;34313;50.780;6.084;2023-04-09T10:24:30;100259.28;;;17.71;38.54
9189;BME280;34313;50.780;6.084;2023-04-09T10:27:11;100256.41;;;17.74;38.00
9189;BME280;34313;50.780;6.084;2023-04-09T10:29:47;100250.78;;;17.66;38.56
9189;BME280;34313;50.780;6.084;2023-04-09T10:32:18;100247.66;;;17.37;38.92
9189;BME280;34313;50.780;6.084;2023-04-09T10:34:48;100253.38;;;17.19;38.97
9189;BME280;34313;50.780;6.084;2023-04-09T10:37:19;100255.09;;;17.20;39.32
9189;BME280;34313;50.780;6.084;2023-04-09T10:39:46;100244.13;;;16.88;39.74
9189;BME280;34313;50.780;6.084;2023-04-09T10:42:14;100254.25;;;16.83;39.95
9189;BME280;34313;50.780;6.084;2023-04-09T10:44:41;100245.22;;;16.73;40.06
9189;BME280;34313;50.780;6.084;2023-04-09T10:47:08;100243.91;;;16.91;39.64
9189;BME280;34313;50.780;6.084;2023-04-09T10:49:39;100222.31;;;17.07;39.17
9189;BME280;34313;50.780;6.084;2023-04-09T10:52:06;100237.91;;;17.25;39.31
9189;BME280;34313;50.780;6.084;2023-04-09T10:59:36;100228.38;;;17.33;38.40
9189;BME280;34313;50.780;6.084;2023-04-09T11:02:02;100224.16;;;17.42;38.94
9189;BME280;34313;50.780;6.084;2023-04-09T11:04:57;100224.13;;;17.66;38.56
9189;BME280;34313;50.780;6.084;2023-04-09T11:07:29;100227.00;;;17.87;38.24
9189;BME280;34313;50.780;6.084;2023-04-09T11:09:54;100223.28;;;17.66;38.06
9189;BME280;34313;50.780;6.084;2023-04-09T11:12:19;100222.50;;;17.52;37.74
9189;BME280;34313;50.780;6.084;2023-04-09T11:14:45;100213.78;;;17.50;38.67
9189;BME280;34313;50.780;6.084;2023-04-09T11:17:11;100212.44;;;17.45;38.68
9189;BME280;34313;50.780;6.084;2023-04-09T11:19:37;100211.03;;;17.63;37.94
9189;BME280;34313;50.780;6.084;2023-04-09T11:22:05;100213.13;;;17.71;37.88
9189;BME280;34313;50.780;6.084;2023-04-09T11:24:44;100197.25;;;17.81;37.81
9189;BME280;34313;50.780;6.084;2023-04-09T11:27:11;100199.22;;;17.90;37.06
9189;BME280;34313;50.780;6.084;2023-04-09T11:29:36;100192.22;;;18.00;36.94
9189;BME280;34313;50.780;6.084;2023-04-09T11:32:02;100185.41;;;18.30;35.52
9189;BME280;34313;50.780;6.084;2023-04-09T11:34:29;100184.09;;;18.36;35.27
9189;BME280;34313;50.780;6.084;2023-04-09T11:36:55;100183.22;;;18.35;35.19
9189;BME280;34313;50.780;6.084;2023-04-09T11:39:21;100188.28;;;17.82;35.10
9189;BME280;34313;50.780;6.084;2023-04-09T11:41:46;100190.41;;;17.43;35.63
9189;BME280;34313;50.780;6.084;2023-04-09T11:44:12;100186.56;;;16.98;36.31
9189;BME280;34313;50.780;6.084;2023-04-09T11:46:38;100191.16;;;16.59;36.70
9189;BME280;34313;50.780;6.084;2023-04-09T11:49:04;100188.59;;;16.21;37.59
9189;BME280;34313;50.780;6.084;2023-04-09T11:51:31;100184.06;;;16.47;37.16
9189;BME280;34313;50.780;6.084;2023-04-09T11:54:01;100179.38;;;16.01;37.71
9189;BME280;34313;50.780;6.084;2023-04-09T11:56:30;100188.50;;;16.22;38.41
9189;BME280;34313;50.780;6.084;2023-04-09T11:58:57;100190.28;;;16.72;37.65
9189;BME280;34313;50.780;6.084;2023-04-09T12:01:22;100181.66;;;16.31;37.79
9189;BME280;34313;50.780;6.084;2023-04-09T12:03:54;100183.88;;;16.37;37.29
9189;BME280;34313;50.780;6.084;2023-04-09T12:06:21;100170.72;;;16.60;37.34
9189;BME280;34313;50.780;6.084;2023-04-09T12:08:54;100174.88;;;16.27;37.67
9189;BME280;34313;50.780;6.084;2023-04-09T12:11:26;100175.75;;;16.15;37.45
9189;BME280;34313;50.780;6.084;2023-04-09T12:13:58;100165.94;;;16.15;37.82
9189;BME280;34313;50.780;6.084;2023-04-09T12:16:23;100163.59;;;16.23;37.68
9189;BME280;34313;50.780;6.084;2023-04-09T12:18:48;100168.81;;;16.12;38.05
9189;BME280;34313;50.780;6.084;2023-04-09T12:21:14;100179.81;;;15.29;39.23
9189;BME280;34313;50.780;6.084;2023-04-09T12:23:41;100181.97;;;15.37;39.07
9189;BME280;34313;50.780;6.084;2023-04-09T12:26:06;100179.47;;;15.21;39.47
9189;BME280;34313;50.780;6.084;2023-04-09T12:28:32;100183.44;;;15.28;39.26
9189;BME280;34313;50.780;6.084;2023-04-09T12:30:57;100187.28;;;15.49;39.38
9189;BME280;34313;50.780;6.084;2023-04-09T12:33:23;100179.66;;;15.70;39.04
9189;BME280;34313;50.780;6.084;2023-04-09T12:35:49;100172.13;;;15.77;38.78
9189;BME280;34313;50.780;6.084;2023-04-09T12:38:14;100169.94;;;16.34;38.30
9189;BME280;34313;50.780;6.084;2023-04-09T12:40:39;100173.72;;;16.92;36.89
9189;BME280;34313;50.780;6.084;2023-04-09T12:43:04;100164.00;;;17.51;36.07
9189;BME280;34313;50.780;6.084;2023-04-09T12:45:30;100162.69;;;17.79;35.74
9189;BME280;34313;50.780;6.084;2023-04-09T12:47:56;100161.31;;;17.98;35.31
9189;BME280;34313;50.780;6.084;2023-04-09T12:50:22;100163.97;;;18.09;34.70
9189;BME280;34313;50.780;6.084;2023-04-09T12:52:47;100158.13;;;18.38;34.43
9189;BME280;34313;50.780;6.084;2023-04-09T12:55:13;100157.09;;;18.61;33.78
9189;BME280;34313;50.780;6.084;2023-04-09T12:57:42;100153.78;;;18.80;34.19
9189;BME280;34313;50.780;6.084;2023-04-09T13:00:08;100149.66;;;18.21;34.68
9189;BME280;34313;50.780;6.084;2023-04-09T13:02:34;100152.44;;;17.39;35.70
9189;BME280;34313;50.780;6.084;2023-04-09T13:04:59;100152.75;;;17.70;35.11
9189;BME280;34313;50.780;6.084;2023-04-09T13:07:25;100154.41;;;18.06;35.37
9189;BME280;34313;50.780;6.084;2023-04-09T13:09:54;100146.28;;;18.74;34.44
9189;BME280;34313;50.780;6.084;2023-04-09T13:12:19;100138.88;;;19.10;33.71
9189;BME280;34313;50.780;6.084;2023-04-09T13:14:46;100138.84;;;19.42;33.07